Terminal Aerodrome Forecast
Issued by NWS

Home | Current Version | Previous Version | Text Only | Print | Product List | Glossary On
Versions: 1 2 3 4 5 6 7 8 9 10 11 12 13 14 15 16 17 18 19 20 21 22 23 24 25 26 27
000
FTUS42 KCAE 192300
TAFDNL
TAF
KDNL 192339Z 2000/2024 02015G23KT P6SM OVC015
      TEMPO 2000/2003 3SM -RA BR BKN007
     FM200300 02015G23KT P6SM OVC007
     FM201300 04015G24KT P6SM OVC020
     FM202000 04012G20KT P6SM BKN050=

USA.gov is the U.S. government's official web portal to all federal, state and local government web resources and services.